createdAt,value
2022-09-11T00:00:41.934Z,15.38
2022-09-11T00:05:44.407Z,15.24
2022-09-11T00:10:48.270Z,15.18
2022-09-11T00:15:51.470Z,15.06
2022-09-11T00:20:54.573Z,15.37
2022-09-11T00:25:56.209Z,15.42
2022-09-11T00:31:00.783Z,15.16
2022-09-11T00:36:07.814Z,14.92
2022-09-11T00:41:19.785Z,14.80
2022-09-11T00:46:31.400Z,14.63
2022-09-11T00:51:37.807Z,14.85
2022-09-11T00:56:41.876Z,14.52
2022-09-11T01:01:43.576Z,14.51
2022-09-11T01:06:46.694Z,14.48
2022-09-11T01:12:19.950Z,14.66
2022-09-11T01:17:33.318Z,14.39
2022-09-11T01:22:44.056Z,14.48
2022-09-11T01:27:52.147Z,14.46
2022-09-11T01:32:59.238Z,14.41
2022-09-11T01:38:05.906Z,14.58
2022-09-11T01:43:13.823Z,14.59
2022-09-11T01:48:20.608Z,14.62
2022-09-11T01:53:25.767Z,14.67
2022-09-11T01:58:29.992Z,14.62
2022-09-11T02:03:41.493Z,14.52
2022-09-11T02:09:03.488Z,14.64
2022-09-11T02:14:36.097Z,14.54
2022-09-11T02:19:39.762Z,14.66
2022-09-11T02:24:42.399Z,14.32
2022-09-11T02:29:44.023Z,14.17
2022-09-11T02:34:47.866Z,14.25
2022-09-11T02:39:52.720Z,14.18
2022-09-11T02:45:04.022Z,14.02
2022-09-11T02:50:26.065Z,13.79
2022-09-11T02:56:00.715Z,13.87
2022-09-11T03:01:05.244Z,13.75
2022-09-11T03:06:13.831Z,14.00
2022-09-11T03:11:17.668Z,13.92
2022-09-11T03:16:21.212Z,13.87
2022-09-11T03:21:24.920Z,13.70
2022-09-11T03:26:27.921Z,13.76
2022-09-11T03:31:29.637Z,13.57
2022-09-11T03:36:32.472Z,13.55
2022-09-11T03:41:34.202Z,13.40
2022-09-11T03:46:36.148Z,13.52
2022-09-11T03:51:37.957Z,13.47
2022-09-11T03:56:39.795Z,13.57
2022-09-11T04:01:41.552Z,13.48
2022-09-11T04:06:44.018Z,13.40
2022-09-11T04:11:45.713Z,13.37
2022-09-11T04:16:54.427Z,13.27
2022-09-11T04:21:56.359Z,13.24
2022-09-11T04:27:00.952Z,13.22
2022-09-11T04:32:04.369Z,13.29
2022-09-11T04:37:10.236Z,13.19
2022-09-11T04:42:12.705Z,13.22
2022-09-11T04:47:16.136Z,13.37
2022-09-11T04:52:20.355Z,13.67
2022-09-11T04:57:21.963Z,13.71
2022-09-11T05:02:24.318Z,14.01
2022-09-11T05:07:29.390Z,13.93
2022-09-11T05:12:31.945Z,14.41
2022-09-11T05:17:34.377Z,14.26
2022-09-11T05:22:38.127Z,14.48
2022-09-11T05:27:40.263Z,14.55
2022-09-11T05:32:42.121Z,14.53
2022-09-11T05:37:44.084Z,14.72
2022-09-11T05:42:45.917Z,14.69
2022-09-11T05:47:47.701Z,14.60
2022-09-11T05:52:49.521Z,14.83
2022-09-11T05:57:55.001Z,14.67
2022-09-11T06:02:59.029Z,14.48
2022-09-11T06:08:05.091Z,14.96
2022-09-11T06:13:07.946Z,14.87
2022-09-11T06:18:10.808Z,14.94
2022-09-11T06:23:12.935Z,14.77
2022-09-11T06:28:14.789Z,15.01
2022-09-11T06:33:17.240Z,15.02
2022-09-11T06:38:18.943Z,15.16
2022-09-11T06:43:21.465Z,15.25
2022-09-11T06:48:23.299Z,15.19
2022-09-11T06:53:25.362Z,15.19
2022-09-11T06:58:32.593Z,15.25
2022-09-11T07:03:34.557Z,15.51
2022-09-11T07:08:40.245Z,15.49
2022-09-11T07:13:42.065Z,15.48
2022-09-11T07:18:45.822Z,15.72
2022-09-11T07:23:57.025Z,15.73
2022-09-11T07:28:59.501Z,15.67
2022-09-11T07:34:02.864Z,15.65
2022-09-11T07:39:05.853Z,15.76
2022-09-11T07:44:23.425Z,16.23
2022-09-11T07:49:26.788Z,16.39
2022-09-11T07:54:31.207Z,16.57
2022-09-11T07:59:33.402Z,16.79
2022-09-11T08:04:36.426Z,16.58
2022-09-11T08:09:38.276Z,16.74
2022-09-11T08:14:40.125Z,16.62
2022-09-11T08:19:52.009Z,16.98
2022-09-11T08:24:53.884Z,17.11
2022-09-11T08:29:55.809Z,16.65
2022-09-11T08:34:57.697Z,16.54
2022-09-11T08:40:00.864Z,16.57
2022-09-11T08:45:07.249Z,16.47
2022-09-11T08:50:24.083Z,16.51
2022-09-11T08:55:39.498Z,16.09
2022-09-11T09:01:19.300Z,15.94
2022-09-11T09:06:39.947Z,15.93
2022-09-11T09:11:55.703Z,15.98
2022-09-11T09:17:04.763Z,16.10
2022-09-11T09:22:26.021Z,16.28
2022-09-11T09:27:37.035Z,16.24
2022-09-11T09:32:48.757Z,16.13
2022-09-11T09:37:50.571Z,16.27
2022-09-11T09:42:58.618Z,16.25
2022-09-11T09:48:01.372Z,16.07
2022-09-11T09:53:11.656Z,16.05
2022-09-11T09:58:14.745Z,15.92
2022-09-11T10:03:24.842Z,16.10
2022-09-11T10:08:37.970Z,16.30
2022-09-11T10:13:52.803Z,15.97
2022-09-11T10:18:56.006Z,15.95
2022-09-11T10:24:03.341Z,16.21
2022-09-11T10:29:13.563Z,15.93
2022-09-11T10:34:19.189Z,16.09
2022-09-11T10:39:23.231Z,15.91
2022-09-11T10:44:27.594Z,16.04
2022-09-11T10:49:35.367Z,15.99
2022-09-11T10:55:15.259Z,15.78
2022-09-11T11:00:27.866Z,15.74
2022-09-11T11:05:46.679Z,15.84
2022-09-11T11:11:12.743Z,15.98
2022-09-11T11:16:27.355Z,16.18
2022-09-11T11:21:30.022Z,16.21
2022-09-11T11:26:50.206Z,15.85
2022-09-11T11:32:19.837Z,15.83
2022-09-11T11:37:28.232Z,15.53
2022-09-11T11:42:35.639Z,15.60
2022-09-11T11:47:42.565Z,15.68
2022-09-11T11:53:01.798Z,15.56
2022-09-11T11:58:04.604Z,15.64
2022-09-11T12:03:44.486Z,15.45
2022-09-11T12:08:47.171Z,15.40
2022-09-11T12:13:48.807Z,15.51
2022-09-11T12:19:14.512Z,15.31
2022-09-11T12:24:19.826Z,15.35
2022-09-11T12:29:42.459Z,15.69
2022-09-11T12:34:44.411Z,15.75
2022-09-11T12:39:51.555Z,15.76
2022-09-11T12:44:54.274Z,15.74
2022-09-11T12:50:21.276Z,15.81
2022-09-11T12:55:35.364Z,15.61
2022-09-11T13:00:40.735Z,15.43
2022-09-11T13:05:45.581Z,15.69
2022-09-11T13:10:47.169Z,16.28
2022-09-11T13:15:58.011Z,16.46
2022-09-11T13:21:24.349Z,17.00
2022-09-11T13:26:32.803Z,17.59
2022-09-11T13:31:35.835Z,17.57
2022-09-11T13:36:39.909Z,17.48
2022-09-11T13:41:44.848Z,17.65
2022-09-11T13:46:52.268Z,17.55
2022-09-11T13:51:54.566Z,17.57
2022-09-11T13:56:56.222Z,17.92
2022-09-11T14:02:02.015Z,18.11
2022-09-11T14:07:03.832Z,18.00
2022-09-11T14:12:05.725Z,17.83
2022-09-11T14:17:11.008Z,18.04
2022-09-11T14:22:24.557Z,18.14
2022-09-11T14:27:35.074Z,18.17
2022-09-11T14:32:39.139Z,18.17
2022-09-11T14:37:45.866Z,18.07
2022-09-11T14:42:48.284Z,18.06
2022-09-11T14:47:50.321Z,18.01
2022-09-11T14:52:52.029Z,18.04
2022-09-11T14:57:53.635Z,18.01
2022-09-11T15:02:55.352Z,17.83
2022-09-11T15:08:00.273Z,17.64
2022-09-11T15:13:03.035Z,17.70
2022-09-11T15:18:06.788Z,18.23
2022-09-11T15:23:08.592Z,18.16
2022-09-11T15:28:10.255Z,18.02
2022-09-11T15:33:12.001Z,17.98
2022-09-11T15:38:13.859Z,18.25
2022-09-11T15:43:15.417Z,18.18
2022-09-11T15:48:17.563Z,18.14
2022-09-11T15:53:19.161Z,18.21
2022-09-11T15:58:20.770Z,18.09
2022-09-11T16:03:22.329Z,18.06
2022-09-11T16:08:24.597Z,18.05
2022-09-11T16:13:26.160Z,18.15
2022-09-11T16:18:27.773Z,18.07
2022-09-11T16:23:30.400Z,17.93
2022-09-11T16:28:37.092Z,17.82
2022-09-11T16:33:44.329Z,17.63
2022-09-11T16:38:47.923Z,17.57
2022-09-11T16:43:52.392Z,17.63
2022-09-11T16:48:59.791Z,17.50
2022-09-11T16:54:04.313Z,17.26
2022-09-11T16:59:06.562Z,17.31
2022-09-11T17:04:08.158Z,17.25
2022-09-11T17:09:09.739Z,17.13
2022-09-11T17:14:11.782Z,17.08
2022-09-11T17:19:13.333Z,16.95
2022-09-11T17:24:17.971Z,16.82
2022-09-11T17:29:19.782Z,16.68
2022-09-11T17:34:21.570Z,16.62
2022-09-11T17:39:23.279Z,16.60
2022-09-11T17:44:24.883Z,16.46
2022-09-11T17:49:26.899Z,16.27
2022-09-11T17:54:28.494Z,16.35
2022-09-11T17:59:30.493Z,16.17
2022-09-11T18:04:32.428Z,16.20
2022-09-11T18:09:34.008Z,16.34
2022-09-11T18:14:40.504Z,16.22
2022-09-11T18:19:42.435Z,16.34
2022-09-11T18:24:44.422Z,16.33
2022-09-11T18:29:46.097Z,16.29
2022-09-11T18:34:48.485Z,16.29
2022-09-11T18:39:50.199Z,16.22
2022-09-11T18:44:51.808Z,16.20
2022-09-11T18:49:53.351Z,16.14
2022-09-11T18:54:54.985Z,15.84
2022-09-11T18:59:56.504Z,15.92
2022-09-11T19:04:58.536Z,15.89
2022-09-11T19:10:01.621Z,15.80
2022-09-11T19:15:03.779Z,15.76
2022-09-11T19:20:09.663Z,15.78
2022-09-11T19:25:11.269Z,15.68
2022-09-11T19:30:13.781Z,15.63
2022-09-11T19:35:15.369Z,15.69
2022-09-11T19:40:17.152Z,15.96
2022-09-11T19:45:18.654Z,15.81
2022-09-11T19:50:21.961Z,15.64
2022-09-11T19:55:23.592Z,15.55
2022-09-11T20:00:25.348Z,15.71
2022-09-11T20:05:27.099Z,15.81
2022-09-11T20:10:29.748Z,15.70
2022-09-11T20:15:31.316Z,15.57
2022-09-11T20:20:33.171Z,15.48
2022-09-11T20:25:34.738Z,15.60
2022-09-11T20:30:36.990Z,15.54
2022-09-11T20:35:38.982Z,15.60
2022-09-11T20:40:42.715Z,15.60
2022-09-11T20:45:44.322Z,15.60
2022-09-11T20:50:45.949Z,15.64
2022-09-11T20:55:48.075Z,15.63
2022-09-11T21:00:49.646Z,15.49
2022-09-11T21:05:51.922Z,15.45
2022-09-11T21:10:53.495Z,15.31
2022-09-11T21:15:55.155Z,15.56
2022-09-11T21:20:57.171Z,15.43
2022-09-11T21:25:58.800Z,15.48
2022-09-11T21:31:00.447Z,15.21
2022-09-11T21:36:02.433Z,14.91
2022-09-11T21:41:06.645Z,14.94
2022-09-11T21:46:09.071Z,14.96
2022-09-11T21:51:15.840Z,14.93
2022-09-11T21:56:24.917Z,14.87
2022-09-11T22:01:28.209Z,15.14
2022-09-11T22:06:31.156Z,15.26
2022-09-11T22:11:32.713Z,15.31
2022-09-11T22:16:34.282Z,15.31
2022-09-11T22:21:35.882Z,15.45
2022-09-11T22:26:37.699Z,15.42
2022-09-11T22:31:39.809Z,15.41
2022-09-11T22:36:41.401Z,15.42
2022-09-11T22:41:43.167Z,15.41
2022-09-11T22:46:48.679Z,15.39
2022-09-11T22:51:50.501Z,15.36
2022-09-11T22:56:52.030Z,15.12
2022-09-11T23:01:53.618Z,15.09
2022-09-11T23:07:13.620Z,15.05
2022-09-11T23:12:15.212Z,14.99
2022-09-11T23:17:16.817Z,15.07
2022-09-11T23:22:18.291Z,15.11
2022-09-11T23:27:20.210Z,15.12
2022-09-11T23:32:21.781Z,14.96
2022-09-11T23:37:23.492Z,14.92
2022-09-11T23:42:25.218Z,14.80
2022-09-11T23:47:26.798Z,14.91
2022-09-11T23:52:28.882Z,15.08
2022-09-11T23:57:30.466Z,14.93
